sensor_id;sensor_type;location;lat;lon;timestamp;P1;durP1;ratioP1;P2;durP2;ratioP2
70705;SDS011;59320;52.316;10.870;2023-04-06T15:39:54;11.45;;;6.80;;
70705;SDS011;59320;52.316;10.870;2023-04-06T15:42:37;10.93;;;6.43;;
70705;SDS011;59320;52.316;10.870;2023-04-06T15:45:05;8.88;;;6.15;;
70705;SDS011;59320;52.316;10.870;2023-04-06T15:47:33;9.93;;;6.25;;
70705;SDS011;59320;52.316;10.870;2023-04-06T15:50:02;10.30;;;6.45;;
70705;SDS011;59320;52.316;10.870;2023-04-06T15:52:33;10.13;;;5.97;;
70705;SDS011;59320;52.316;10.870;2023-04-06T15:55:03;8.52;;;6.50;;
70705;SDS011;59320;52.316;10.870;2023-04-06T15:57:32;7.80;;;6.00;;
70705;SDS011;59320;52.316;10.870;2023-04-06T15:59:59;7.72;;;6.30;;
70705;SDS011;59320;52.316;10.870;2023-04-06T16:02:28;10.77;;;6.50;;
70705;SDS011;59320;52.316;10.870;2023-04-06T16:04:55;8.32;;;6.22;;
70705;SDS011;59320;52.316;10.870;2023-04-06T16:07:23;9.52;;;5.97;;
70705;SDS011;59320;52.316;10.870;2023-04-06T16:09:50;7.63;;;6.38;;
70705;SDS011;59320;52.316;10.870;2023-04-06T16:12:19;11.15;;;6.53;;
70705;SDS011;59320;52.316;10.870;2023-04-06T16:14:47;11.35;;;6.43;;
70705;SDS011;59320;52.316;10.870;2023-04-06T16:17:14;11.20;;;6.78;;
70705;SDS011;59320;52.316;10.870;2023-04-06T16:19:41;10.70;;;6.45;;
70705;SDS011;59320;52.316;10.870;2023-04-06T16:22:12;9.68;;;5.78;;
70705;SDS011;59320;52.316;10.870;2023-04-06T16:25:03;7.95;;;6.10;;
70705;SDS011;59320;52.316;10.870;2023-04-06T16:28:01;9.98;;;5.68;;
70705;SDS011;59320;52.316;10.870;2023-04-06T16:30:45;7.78;;;5.95;;
70705;SDS011;59320;52.316;10.870;2023-04-06T16:33:16;8.60;;;5.88;;
70705;SDS011;59320;52.316;10.870;2023-04-06T16:35:44;7.50;;;5.28;;
70705;SDS011;59320;52.316;10.870;2023-04-06T16:38:11;7.32;;;5.90;;
70705;SDS011;59320;52.316;10.870;2023-04-06T16:40:38;8.48;;;5.20;;
70705;SDS011;59320;52.316;10.870;2023-04-06T16:43:08;6.50;;;5.68;;
70705;SDS011;59320;52.316;10.870;2023-04-06T16:45:35;5.68;;;5.18;;
70705;SDS011;59320;52.316;10.870;2023-04-06T16:48:02;6.53;;;5.25;;
70705;SDS011;59320;52.316;10.870;2023-04-06T16:50:30;7.03;;;5.53;;
70705;SDS011;59320;52.316;10.870;2023-04-06T16:52:57;7.90;;;5.47;;
70705;SDS011;59320;52.316;10.870;2023-04-06T16:55:24;7.90;;;6.18;;
70705;SDS011;59320;52.316;10.870;2023-04-06T16:57:53;7.88;;;5.38;;
70705;SDS011;59320;52.316;10.870;2023-04-06T17:00:22;8.27;;;5.90;;
70705;SDS011;59320;52.316;10.870;2023-04-06T17:02:50;7.22;;;6.13;;
70705;SDS011;59320;52.316;10.870;2023-04-06T17:05:17;8.73;;;6.00;;
70705;SDS011;59320;52.316;10.870;2023-04-06T17:07:48;7.80;;;5.88;;
70705;SDS011;59320;52.316;10.870;2023-04-06T17:10:16;8.13;;;5.82;;
70705;SDS011;59320;52.316;10.870;2023-04-06T17:12:43;8.30;;;6.25;;
70705;SDS011;59320;52.316;10.870;2023-04-06T17:15:18;9.23;;;6.78;;
70705;SDS011;59320;52.316;10.870;2023-04-06T17:17:47;10.45;;;7.03;;
70705;SDS011;59320;52.316;10.870;2023-04-06T17:20:14;10.27;;;7.50;;
70705;SDS011;59320;52.316;10.870;2023-04-06T17:22:41;10.07;;;7.22;;
70705;SDS011;59320;52.316;10.870;2023-04-06T17:25:11;11.98;;;7.38;;
70705;SDS011;59320;52.316;10.870;2023-04-06T17:27:42;10.73;;;7.63;;
70705;SDS011;59320;52.316;10.870;2023-04-06T17:30:10;11.48;;;8.32;;
70705;SDS011;59320;52.316;10.870;2023-04-06T17:32:38;14.20;;;8.40;;
70705;SDS011;59320;52.316;10.870;2023-04-06T17:35:07;12.00;;;7.93;;
70705;SDS011;59320;52.316;10.870;2023-04-06T17:37:36;12.98;;;9.93;;
70705;SDS011;59320;52.316;10.870;2023-04-06T17:40:05;13.02;;;9.43;;
70705;SDS011;59320;52.316;10.870;2023-04-06T17:42:33;11.52;;;7.80;;
70705;SDS011;59320;52.316;10.870;2023-04-06T17:45:00;10.70;;;8.02;;
70705;SDS011;59320;52.316;10.870;2023-04-06T17:47:28;9.82;;;8.18;;
70705;SDS011;59320;52.316;10.870;2023-04-06T17:49:58;10.18;;;8.27;;
70705;SDS011;59320;52.316;10.870;2023-04-06T17:52:28;12.25;;;8.65;;
70705;SDS011;59320;52.316;10.870;2023-04-06T17:54:56;12.45;;;8.48;;
70705;SDS011;59320;52.316;10.870;2023-04-06T17:57:23;11.35;;;8.45;;
70705;SDS011;59320;52.316;10.870;2023-04-06T17:59:51;11.30;;;8.32;;
70705;SDS011;59320;52.316;10.870;2023-04-06T18:02:19;14.48;;;9.68;;
70705;SDS011;59320;52.316;10.870;2023-04-06T18:04:49;13.57;;;9.45;;
70705;SDS011;59320;52.316;10.870;2023-04-06T18:07:18;13.32;;;9.50;;
70705;SDS011;59320;52.316;10.870;2023-04-06T18:09:46;15.63;;;11.27;;
70705;SDS011;59320;52.316;10.870;2023-04-06T18:12:14;16.42;;;11.23;;
70705;SDS011;59320;52.316;10.870;2023-04-06T18:14:43;14.88;;;10.55;;
70705;SDS011;59320;52.316;10.870;2023-04-06T18:17:11;13.90;;;9.60;;
70705;SDS011;59320;52.316;10.870;2023-04-06T18:19:38;12.98;;;9.73;;
70705;SDS011;59320;52.316;10.870;2023-04-06T18:22:05;12.95;;;9.35;;
70705;SDS011;59320;52.316;10.870;2023-04-06T18:24:33;13.52;;;9.57;;
70705;SDS011;59320;52.316;10.870;2023-04-06T18:27:02;14.57;;;9.75;;
70705;SDS011;59320;52.316;10.870;2023-04-06T18:29:29;16.52;;;9.90;;
70705;SDS011;59320;52.316;10.870;2023-04-06T18:31:56;14.82;;;10.20;;
70705;SDS011;59320;52.316;10.870;2023-04-06T18:34:23;16.65;;;12.27;;
70705;SDS011;59320;52.316;10.870;2023-04-06T18:36:51;19.75;;;14.25;;
70705;SDS011;59320;52.316;10.870;2023-04-06T18:39:23;19.35;;;11.68;;
70705;SDS011;59320;52.316;10.870;2023-04-06T18:41:50;13.27;;;9.68;;
70705;SDS011;59320;52.316;10.870;2023-04-06T18:44:19;14.23;;;9.73;;
70705;SDS011;59320;52.316;10.870;2023-04-06T18:46:46;15.32;;;10.95;;
70705;SDS011;59320;52.316;10.870;2023-04-06T18:49:13;14.88;;;10.77;;
70705;SDS011;59320;52.316;10.870;2023-04-06T18:51:41;13.98;;;9.95;;
70705;SDS011;59320;52.316;10.870;2023-04-06T18:54:08;13.30;;;9.82;;
70705;SDS011;59320;52.316;10.870;2023-04-06T18:56:35;16.88;;;10.45;;
70705;SDS011;59320;52.316;10.870;2023-04-06T18:59:03;13.98;;;9.25;;
70705;SDS011;59320;52.316;10.870;2023-04-06T19:01:34;13.05;;;8.63;;
70705;SDS011;59320;52.316;10.870;2023-04-06T19:04:05;14.43;;;10.23;;
70705;SDS011;59320;52.316;10.870;2023-04-06T19:06:32;16.98;;;10.13;;
70705;SDS011;59320;52.316;10.870;2023-04-06T19:08:59;14.30;;;10.40;;
70705;SDS011;59320;52.316;10.870;2023-04-06T19:11:30;17.75;;;10.65;;
70705;SDS011;59320;52.316;10.870;2023-04-06T19:13:57;15.13;;;10.00;;
70705;SDS011;59320;52.316;10.870;2023-04-06T19:16:24;13.05;;;9.63;;
70705;SDS011;59320;52.316;10.870;2023-04-06T19:18:54;15.85;;;9.63;;
70705;SDS011;59320;52.316;10.870;2023-04-06T19:21:22;14.35;;;10.27;;
70705;SDS011;59320;52.316;10.870;2023-04-06T19:23:52;15.00;;;9.52;;
70705;SDS011;59320;52.316;10.870;2023-04-06T19:26:20;13.65;;;9.75;;
70705;SDS011;59320;52.316;10.870;2023-04-06T19:28:48;13.82;;;10.02;;
70705;SDS011;59320;52.316;10.870;2023-04-06T19:31:18;13.25;;;9.10;;
70705;SDS011;59320;52.316;10.870;2023-04-06T19:33:45;12.60;;;9.40;;
70705;SDS011;59320;52.316;10.870;2023-04-06T19:36:14;13.63;;;9.13;;
70705;SDS011;59320;52.316;10.870;2023-04-06T19:38:53;12.45;;;9.55;;
70705;SDS011;59320;52.316;10.870;2023-04-06T19:41:20;12.07;;;9.00;;
70705;SDS011;59320;52.316;10.870;2023-04-06T19:43:51;14.63;;;9.20;;
70705;SDS011;59320;52.316;10.870;2023-04-06T19:46:30;12.32;;;8.70;;
70705;SDS011;59320;52.316;10.870;2023-04-06T19:49:21;12.55;;;9.15;;
70705;SDS011;59320;52.316;10.870;2023-04-06T19:52:18;12.00;;;8.45;;
70705;SDS011;59320;52.316;10.870;2023-04-06T19:54:52;12.40;;;8.75;;
70705;SDS011;59320;52.316;10.870;2023-04-06T19:57:22;10.15;;;7.97;;
70705;SDS011;59320;52.316;10.870;2023-04-06T20:00:00;10.93;;;8.75;;
70705;SDS011;59320;52.316;10.870;2023-04-06T20:02:36;10.93;;;8.23;;
70705;SDS011;59320;52.316;10.870;2023-04-06T20:05:08;11.02;;;8.48;;
70705;SDS011;59320;52.316;10.870;2023-04-06T20:07:39;11.88;;;8.20;;
70705;SDS011;59320;52.316;10.870;2023-04-06T20:10:06;10.73;;;7.63;;
70705;SDS011;59320;52.316;10.870;2023-04-06T20:12:37;10.00;;;8.48;;
70705;SDS011;59320;52.316;10.870;2023-04-06T20:15:05;11.13;;;8.02;;
70705;SDS011;59320;52.316;10.870;2023-04-06T20:17:32;10.98;;;8.48;;
70705;SDS011;59320;52.316;10.870;2023-04-06T20:20:00;10.98;;;8.60;;
70705;SDS011;59320;52.316;10.870;2023-04-06T20:22:27;10.95;;;8.40;;
70705;SDS011;59320;52.316;10.870;2023-04-06T20:24:58;10.32;;;8.43;;
70705;SDS011;59320;52.316;10.870;2023-04-06T20:27:26;13.80;;;9.07;;
70705;SDS011;59320;52.316;10.870;2023-04-06T20:29:53;10.38;;;8.45;;
70705;SDS011;59320;52.316;10.870;2023-04-06T20:32:20;11.60;;;8.77;;
70705;SDS011;59320;52.316;10.870;2023-04-06T20:34:50;11.98;;;8.85;;
70705;SDS011;59320;52.316;10.870;2023-04-06T20:37:23;12.85;;;8.57;;
70705;SDS011;59320;52.316;10.870;2023-04-06T20:39:54;11.68;;;8.55;;
70705;SDS011;59320;52.316;10.870;2023-04-06T20:42:40;11.68;;;8.60;;
70705;SDS011;59320;52.316;10.870;2023-04-06T20:45:13;12.00;;;8.77;;
70705;SDS011;59320;52.316;10.870;2023-04-06T20:47:42;10.40;;;8.27;;
70705;SDS011;59320;52.316;10.870;2023-04-06T20:50:10;10.40;;;8.70;;
70705;SDS011;59320;52.316;10.870;2023-04-06T20:52:38;15.38;;;9.65;;
70705;SDS011;59320;52.316;10.870;2023-04-06T20:55:05;11.80;;;8.85;;
70705;SDS011;59320;52.316;10.870;2023-04-06T20:57:35;10.45;;;8.35;;
70705;SDS011;59320;52.316;10.870;2023-04-06T21:00:05;12.65;;;8.73;;
70705;SDS011;59320;52.316;10.870;2023-04-06T21:02:36;13.20;;;9.10;;
70705;SDS011;59320;52.316;10.870;2023-04-06T21:05:04;11.73;;;8.80;;
70705;SDS011;59320;52.316;10.870;2023-04-06T21:07:32;11.65;;;9.02;;
70705;SDS011;59320;52.316;10.870;2023-04-06T21:09:59;9.50;;;8.43;;
70705;SDS011;59320;52.316;10.870;2023-04-06T21:12:48;11.30;;;9.35;;
70705;SDS011;59320;52.316;10.870;2023-04-06T21:15:19;14.52;;;9.48;;
70705;SDS011;59320;52.316;10.870;2023-04-06T21:17:56;11.27;;;9.20;;
70705;SDS011;59320;52.316;10.870;2023-04-06T21:20:29;13.88;;;9.60;;
70705;SDS011;59320;52.316;10.870;2023-04-06T21:22:58;12.77;;;9.82;;
70705;SDS011;59320;52.316;10.870;2023-04-06T21:25:28;13.73;;;10.07;;
70705;SDS011;59320;52.316;10.870;2023-04-06T21:27:57;13.20;;;10.13;;
70705;SDS011;59320;52.316;10.870;2023-04-06T21:30:24;15.80;;;10.57;;
70705;SDS011;59320;52.316;10.870;2023-04-06T21:32:51;14.23;;;9.65;;
70705;SDS011;59320;52.316;10.870;2023-04-06T21:35:18;14.85;;;9.98;;
70705;SDS011;59320;52.316;10.870;2023-04-06T21:37:46;11.52;;;9.95;;
70705;SDS011;59320;52.316;10.870;2023-04-06T21:40:13;14.32;;;10.43;;
70705;SDS011;59320;52.316;10.870;2023-04-06T21:45:48;13.68;;;10.30;;
70705;SDS011;59320;52.316;10.870;2023-04-06T21:48:16;13.63;;;10.98;;
70705;SDS011;59320;52.316;10.870;2023-04-06T21:50:47;13.38;;;11.00;;
70705;SDS011;59320;52.316;10.870;2023-04-06T21:53:14;13.68;;;10.48;;
70705;SDS011;59320;52.316;10.870;2023-04-06T21:55:42;17.02;;;10.90;;
70705;SDS011;59320;52.316;10.870;2023-04-06T21:58:11;15.73;;;11.55;;
70705;SDS011;59320;52.316;10.870;2023-04-06T22:00:40;16.08;;;12.20;;
70705;SDS011;59320;52.316;10.870;2023-04-06T22:03:14;16.08;;;11.93;;
70705;SDS011;59320;52.316;10.870;2023-04-06T22:05:42;15.43;;;11.85;;
70705;SDS011;59320;52.316;10.870;2023-04-06T22:08:10;20.60;;;11.73;;
70705;SDS011;59320;52.316;10.870;2023-04-06T22:10:38;17.40;;;11.93;;
70705;SDS011;59320;52.316;10.870;2023-04-06T22:13:07;15.27;;;11.50;;
70705;SDS011;59320;52.316;10.870;2023-04-06T22:15:37;14.90;;;11.13;;
70705;SDS011;59320;52.316;10.870;2023-04-06T22:18:05;17.02;;;11.95;;
70705;SDS011;59320;52.316;10.870;2023-04-06T22:20:32;16.17;;;11.77;;
70705;SDS011;59320;52.316;10.870;2023-04-06T22:22:59;17.65;;;11.65;;
70705;SDS011;59320;52.316;10.870;2023-04-06T22:25:27;16.35;;;11.70;;
70705;SDS011;59320;52.316;10.870;2023-04-06T22:27:55;15.65;;;11.68;;
70705;SDS011;59320;52.316;10.870;2023-04-06T22:30:24;17.65;;;11.95;;
70705;SDS011;59320;52.316;10.870;2023-04-06T22:32:56;15.98;;;11.35;;
70705;SDS011;59320;52.316;10.870;2023-04-06T22:35:23;18.42;;;12.13;;
70705;SDS011;59320;52.316;10.870;2023-04-06T22:37:50;15.75;;;11.75;;
70705;SDS011;59320;52.316;10.870;2023-04-06T22:40:17;17.00;;;12.32;;
70705;SDS011;59320;52.316;10.870;2023-04-06T22:42:45;16.73;;;11.48;;
70705;SDS011;59320;52.316;10.870;2023-04-06T22:45:16;16.85;;;12.35;;
70705;SDS011;59320;52.316;10.870;2023-04-06T22:47:43;16.38;;;12.35;;
70705;SDS011;59320;52.316;10.870;2023-04-06T22:50:12;19.83;;;12.57;;
70705;SDS011;59320;52.316;10.870;2023-04-06T22:52:42;18.63;;;12.77;;
70705;SDS011;59320;52.316;10.870;2023-04-06T22:55:09;17.10;;;12.40;;
70705;SDS011;59320;52.316;10.870;2023-04-06T22:57:37;18.35;;;12.63;;
70705;SDS011;59320;52.316;10.870;2023-04-06T23:00:07;17.63;;;11.98;;
70705;SDS011;59320;52.316;10.870;2023-04-06T23:02:35;17.15;;;12.70;;
70705;SDS011;59320;52.316;10.870;2023-04-06T23:05:02;17.77;;;13.02;;
70705;SDS011;59320;52.316;10.870;2023-04-06T23:07:31;18.15;;;12.00;;
70705;SDS011;59320;52.316;10.870;2023-04-06T23:10:01;16.63;;;11.55;;
70705;SDS011;59320;52.316;10.870;2023-04-06T23:15:02;17.15;;;12.27;;
70705;SDS011;59320;52.316;10.870;2023-04-06T23:17:30;17.58;;;11.63;;
70705;SDS011;59320;52.316;10.870;2023-04-06T23:19:57;17.48;;;12.23;;
70705;SDS011;59320;52.316;10.870;2023-04-06T23:22:26;23.40;;;12.10;;
70705;SDS011;59320;52.316;10.870;2023-04-06T23:24:55;16.95;;;11.70;;
70705;SDS011;59320;52.316;10.870;2023-04-06T23:27:29;19.40;;;12.35;;
70705;SDS011;59320;52.316;10.870;2023-04-06T23:29:56;17.48;;;12.45;;
70705;SDS011;59320;52.316;10.870;2023-04-06T23:32:25;16.45;;;12.27;;
70705;SDS011;59320;52.316;10.870;2023-04-06T23:34:52;16.63;;;12.13;;
70705;SDS011;59320;52.316;10.870;2023-04-06T23:37:19;16.58;;;11.75;;
70705;SDS011;59320;52.316;10.870;2023-04-06T23:39:46;16.80;;;11.95;;
70705;SDS011;59320;52.316;10.870;2023-04-06T23:42:15;18.10;;;12.10;;
70705;SDS011;59320;52.316;10.870;2023-04-06T23:44:44;16.40;;;12.00;;
70705;SDS011;59320;52.316;10.870;2023-04-06T23:47:12;17.33;;;13.02;;
70705;SDS011;59320;52.316;10.870;2023-04-06T23:49:40;16.65;;;12.65;;
70705;SDS011;59320;52.316;10.870;2023-04-06T23:52:07;17.88;;;12.73;;
70705;SDS011;59320;52.316;10.870;2023-04-06T23:54:34;16.63;;;12.48;;
70705;SDS011;59320;52.316;10.870;2023-04-06T23:57:01;18.08;;;12.80;;
70705;SDS011;59320;52.316;10.870;2023-04-06T23:59:38;18.48;;;12.60;;
